Time;durP1;ratioP1;P1;durP2;ratioP2;P2;SDS_P1;SDS_P2;PMS_P1;PMS_P2;Temp;Humidity;BMP_temperature;BMP_pressure;BME280_temperature;BME280_humidity;BME280_pressure;Samples;Min_cycle;Max_cycle;Signal;HPM_P1;HPM_P2
2022/06/04 00:00:14;;;;;;;8.90;6.13;;;;;;;17.69;56.36;101740.03;5039707;28;20182;-68
2022/06/04 00:02:41;;;;;;;8.67;7.83;;;;;;;17.50;55.84;101731.31;5039923;28;20166;-67
2022/06/04 00:05:08;;;;;;;18.10;6.90;;;;;;;18.01;54.85;101734.66;5039645;28;20405;-68
2022/06/04 00:07:34;;;;;;;7.70;7.00;;;;;;;18.23;54.25;101738.94;5039744;28;20413;-68
2022/06/04 00:15:32;;;;;;;7.17;6.47;;;;;;;18.00;54.78;101738.16;5039631;28;20502;-69
2022/06/04 00:17:59;;;;;;;7.13;6.53;;;;;;;18.25;53.90;101742.41;5039345;28;20587;-69
2022/06/04 00:20:24;;;;;;;7.93;7.23;;;;;;;18.33;52.95;101737.97;5039533;28;20416;-68
2022/06/04 00:22:50;;;;;;;7.87;7.17;;;;;;;18.09;53.99;101731.06;5039604;28;20490;-71
2022/06/04 00:25:15;;;;;;;9.70;7.77;;;;;;;17.62;55.69;101736.53;5039497;28;20193;-70
2022/06/04 00:27:41;;;;;;;10.00;9.10;;;;;;;16.82;58.08;101742.81;5039001;28;20224;-65
2022/06/04 00:30:07;;;;;;;10.30;8.97;;;;;;;16.42;59.80;101747.19;5039461;28;20838;-66
2022/06/04 00:32:37;;;;;;;9.10;8.30;;;;;;;16.05;61.08;101747.97;5038879;28;20186;-66
2022/06/04 00:35:06;;;;;;;10.07;9.13;;;;;;;15.57;62.05;101752.97;5038906;28;20434;-67
2022/06/04 00:37:35;;;;;;;10.77;9.30;;;;;;;15.64;62.28;101746.00;5039134;28;20407;-68
2022/06/04 00:40:01;;;;;;;9.80;8.90;;;;;;;15.44;62.76;101741.53;5038825;28;20479;-68
2022/06/04 00:42:26;;;;;;;9.23;8.33;;;;;;;15.01;64.34;101753.53;5038616;28;20417;-66
2022/06/04 00:45:10;;;;;;;12.50;9.17;;;;;;;15.23;63.88;101750.16;5039103;28;20682;-68
2022/06/04 00:47:36;;;;;;;10.27;9.37;;;;;;;15.21;63.45;101751.91;5038747;28;20178;-66
2022/06/04 00:50:04;;;;;;;9.97;8.97;;;;;;;15.07;63.94;101751.84;5038404;28;20435;-66
2022/06/04 00:52:30;;;;;;;9.70;8.87;;;;;;;14.92;64.37;101755.19;5037775;28;20202;-67
2022/06/04 00:54:57;;;;;;;10.77;9.77;;;;;;;14.73;65.08;101759.41;5038211;28;20475;-68
2022/06/04 00:57:39;;;;;;;10.10;9.10;;;;;;;14.79;64.84;101759.47;5038976;28;20552;-67
2022/06/04 01:00:17;;;;;;;12.50;9.70;;;;;;;14.81;64.53;101759.47;5038700;28;20391;-65
2022/06/04 01:03:24;;;;;;;11.67;9.67;;;;;;;14.88;64.55;101756.03;5037682;28;20467;-64
2022/06/04 01:06:00;;;;;;;10.60;9.60;;;;;;;14.69;65.03;101748.88;5016934;28;20772;-64
2022/06/04 01:08:44;;;;;;;10.20;9.17;;;;;;;14.17;66.62;101738.72;5017346;28;20462;-64
2022/06/04 01:11:25;;;;;;;10.37;9.47;;;;;;;14.12;67.07;101750.03;5031000;28;20468;-64
2022/06/04 01:13:59;;;;;;;10.13;9.10;;;;;;;14.30;66.41;101743.22;5038170;28;20419;-64
2022/06/04 01:16:39;;;;;;;12.43;11.13;;;;;;;14.58;65.50;101749.63;5038236;28;20438;-64
2022/06/04 01:19:23;;;;;;;11.13;9.93;;;;;;;14.70;65.16;101748.88;5038331;28;20409;-65
2022/06/04 01:22:09;;;;;;;12.73;8.87;;;;;;;14.60;65.39;101747.00;5038367;28;20692;-66
2022/06/04 01:24:56;;;;;;;11.93;10.03;;;;;;;14.56;65.54;101742.59;5038338;28;20413;-64
2022/06/04 01:27:39;;;;;;;10.83;9.73;;;;;;;14.31;66.50;101745.88;5037347;28;20891;-64
2022/06/04 01:30:09;;;;;;;11.00;9.80;;;;;;;14.40;66.49;101744.22;5037985;28;20452;-63
2022/06/04 01:32:44;;;;;;;11.10;9.37;;;;;;;14.41;66.51;101746.84;5037032;28;20402;-64
2022/06/04 01:35:29;;;;;;;10.20;9.20;;;;;;;14.59;66.03;101747.91;5037159;28;20656;-64
2022/06/04 01:37:58;;;;;;;11.00;9.90;;;;;;;13.96;67.39;101753.34;5037070;28;20416;-64
2022/06/04 01:43:16;;;;;;;11.23;10.00;;;;;;;14.24;66.81;101746.66;5037701;28;20461;-64
2022/06/04 01:45:43;;;;;;;13.10;9.77;;;;;;;14.31;66.68;101745.00;5037826;28;20476;-65
2022/06/04 01:48:09;;;;;;;12.27;9.63;;;;;;;13.98;68.02;101747.25;5037724;28;20440;-65
2022/06/04 01:50:54;;;;;;;11.23;10.13;;;;;;;13.86;68.10;101744.50;5037106;28;20791;-65
2022/06/04 01:53:21;;;;;;;11.20;9.90;;;;;;;14.04;68.15;101741.19;5037022;28;20447;-65
2022/06/04 01:55:57;;;;;;;13.37;10.57;;;;;;;14.35;67.34;101738.03;5037073;28;20392;-65
2022/06/04 01:58:32;;;;;;;15.10;10.23;;;;;;;13.91;68.11;101734.03;5037803;28;20401;-65
2022/06/04 02:01:01;;;;;;;10.93;9.83;;;;;;;14.00;68.20;101742.03;5036883;28;20627;-64
2022/06/04 02:03:30;;;;;;;12.23;10.93;;;;;;;14.18;67.28;101738.75;5040092;28;20719;-65
2022/06/04 02:06:05;;;;;;;13.07;11.27;;;;;;;13.90;68.24;101732.31;5041084;28;20420;-65
2022/06/04 02:08:49;;;;;;;15.13;11.57;;;;;;;14.10;67.61;101735.16;5041766;28;20503;-65
2022/06/04 02:11:20;;;;;;;13.10;11.80;;;;;;;13.87;68.40;101738.41;5040917;28;20439;-64
2022/06/04 02:13:47;;;;;;;12.13;10.53;;;;;;;13.92;68.10;101741.06;5040824;28;20413;-65
2022/06/04 02:16:23;;;;;;;14.67;12.00;;;;;;;13.84;68.33;101737.47;5040867;28;20419;-64
2022/06/04 02:18:49;;;;;;;14.23;11.63;;;;;;;13.95;68.36;101743.72;5041526;28;20395;-64
2022/06/04 02:21:18;;;;;;;12.97;11.20;;;;;;;13.75;68.50;101738.25;5040820;28;20428;-64
2022/06/04 02:23:44;;;;;;;14.90;11.50;;;;;;;14.03;68.06;101743.81;5041339;28;20430;-65
2022/06/04 02:26:09;;;;;;;11.90;10.67;;;;;;;13.71;69.04;101745.19;5041411;28;20427;-65
2022/06/04 02:28:36;;;;;;;16.03;11.77;;;;;;;13.64;69.31;101740.72;5041068;28;20387;-64
2022/06/04 02:31:23;;;;;;;12.70;10.80;;;;;;;13.55;69.43;101738.84;5041402;28;20264;-65
2022/06/04 02:34:00;;;;;;;12.30;10.77;;;;;;;13.68;69.11;101737.28;5041297;28;20388;-64
2022/06/04 02:36:33;;;;;;;13.60;12.20;;;;;;;13.67;69.13;101732.91;5041585;28;20383;-64
2022/06/04 02:39:10;;;;;;;14.97;12.10;;;;;;;13.71;69.18;101739.94;5041437;28;20452;-65
2022/06/04 02:41:43;;;;;;;13.17;11.80;;;;;;;13.81;68.74;101733.06;5041344;28;20452;-64
2022/06/04 02:44:18;;;;;;;12.33;11.13;;;;;;;13.39;69.76;101744.75;5040255;28;20444;-64
2022/06/04 02:46:55;;;;;;;13.03;11.30;;;;;;;13.42;69.91;101737.81;5041109;28;20499;-65
2022/06/04 02:49:25;;;;;;;14.77;12.00;;;;;;;13.24;70.48;101734.91;5041279;28;20793;-65
2022/06/04 02:51:53;;;;;;;13.50;12.10;;;;;;;13.34;70.57;101734.19;5040299;28;20443;-65
2022/06/04 02:54:31;;;;;;;15.67;12.13;;;;;;;13.45;69.98;101745.72;5040819;28;20417;-64
2022/06/04 02:56:57;;;;;;;13.40;12.03;;;;;;;13.31;70.38;101741.97;5040223;28;20420;-64
2022/06/04 02:59:24;;;;;;;14.13;11.80;;;;;;;13.32;70.51;101746.38;5040218;28;20395;-64
2022/06/04 03:01:53;;;;;;;12.43;11.23;;;;;;;13.39;70.65;101747.38;5040996;28;20416;-64
2022/06/04 03:04:19;;;;;;;15.77;11.57;;;;;;;13.30;70.77;101754.19;5040652;28;20815;-65
2022/06/04 03:06:44;;;;;;;13.63;11.63;;;;;;;13.33;70.43;101756.00;5041223;28;20408;-64
2022/06/04 03:09:12;;;;;;;14.57;12.97;;;;;;;13.53;69.96;101753.69;5040754;28;20691;-65
2022/06/04 03:11:46;;;;;;;14.80;12.73;;;;;;;13.52;69.93;101753.63;5039891;28;20205;-65
2022/06/04 03:14:13;;;;;;;16.07;13.10;;;;;;;13.45;70.31;101753.56;5040308;28;20403;-65
2022/06/04 03:16:42;;;;;;;17.53;13.23;;;;;;;13.28;70.52;101757.66;5040385;28;20431;-65
2022/06/04 03:19:08;;;;;;;17.73;14.13;;;;;;;13.27;71.00;101763.75;5040977;28;20384;-65
2022/06/04 03:21:35;;;;;;;14.37;12.90;;;;;;;13.41;70.84;101757.00;5040517;28;20819;-65
2022/06/04 03:24:00;;;;;;;16.50;13.50;;;;;;;13.14;71.57;101760.94;5040295;28;20166;-65
2022/06/04 03:26:26;;;;;;;14.83;13.30;;;;;;;13.46;70.20;101768.44;5040736;28;20420;-65
2022/06/04 03:28:51;;;;;;;15.47;13.70;;;;;;;13.47;70.17;101764.06;5040487;28;20181;-66
2022/06/04 03:31:16;;;;;;;15.63;13.63;;;;;;;13.40;70.49;101772.72;5040275;28;20313;-66
2022/06/04 03:33:42;;;;;;;17.27;13.30;;;;;;;13.58;69.87;101769.47;5040735;28;20212;-65
2022/06/04 03:36:11;;;;;;;14.10;12.67;;;;;;;13.45;70.36;101777.16;5040374;28;20170;-66
2022/06/04 03:38:36;;;;;;;15.60;12.30;;;;;;;13.48;70.34;101781.56;5040356;28;20190;-66
2022/06/04 03:41:02;;;;;;;16.57;13.43;;;;;;;13.46;70.04;101785.88;5040531;28;20360;-64
2022/06/04 03:43:27;;;;;;;17.63;12.63;;;;;;;14.13;67.40;101788.50;5040036;28;20190;-65
2022/06/04 03:45:52;;;;;;;12.50;11.23;;;;;;;14.27;67.14;101783.41;5040044;28;20178;-66
2022/06/04 03:48:18;;;;;;;12.90;11.60;;;;;;;14.77;65.74;101778.69;5040498;28;20474;-63
2022/06/04 03:50:43;;;;;;;12.70;11.40;;;;;;;15.33;63.51;101780.03;5039874;28;20216;-64
2022/06/04 03:53:08;;;;;;;13.07;11.47;;;;;;;15.16;62.86;101785.16;5039912;28;20174;-63
2022/06/04 03:55:34;;;;;;;15.13;12.13;;;;;;;14.95;63.56;101786.75;5040430;28;20208;-65
2022/06/04 03:57:59;;;;;;;12.03;10.93;;;;;;;15.32;62.50;101799.28;5039828;28;20530;-65
2022/06/04 04:00:27;;;;;;;14.30;12.70;;;;;;;15.60;62.12;101794.19;5039721;28;20186;-65
2022/06/04 04:02:55;;;;;;;14.80;11.83;;;;;;;15.74;61.61;101795.16;5040161;28;20174;-65
2022/06/04 04:05:25;;;;;;;12.23;10.87;;;;;;;15.58;61.52;101804.69;5039876;28;20392;-65
2022/06/04 04:07:51;;;;;;;17.00;12.37;;;;;;;15.31;62.24;101803.63;5039503;28;20417;-65
2022/06/04 04:10:17;;;;;;;11.73;10.53;;;;;;;15.62;61.84;101805.59;5039978;28;20427;-65
2022/06/04 04:12:43;;;;;;;15.33;12.33;;;;;;;15.63;61.39;101802.09;5039298;28;20666;-65
2022/06/04 04:15:10;;;;;;;12.73;11.53;;;;;;;16.17;60.12;101794.50;5038947;28;20433;-64
2022/06/04 04:17:36;;;;;;;14.30;12.00;;;;;;;15.26;61.89;101796.59;5039415;28;20284;-65
2022/06/04 04:20:04;;;;;;;19.50;12.90;;;;;;;14.23;65.27;101802.59;5039503;28;20799;-65
2022/06/04 04:22:31;;;;;;;13.67;12.27;;;;;;;14.10;66.41;101806.84;5039283;28;20487;-65
2022/06/04 04:24:56;;;;;;;15.70;13.80;;;;;;;14.21;66.48;101803.47;5038786;28;20425;-65
2022/06/04 04:27:22;;;;;;;15.67;13.83;;;;;;;14.19;67.19;101797.31;5039251;28;20170;-65
2022/06/04 04:29:47;;;;;;;15.33;13.60;;;;;;;14.26;66.17;101783.41;5039606;28;20209;-65
2022/06/04 04:32:13;;;;;;;14.83;13.40;;;;;;;14.26;66.96;101786.03;5039056;28;20417;-65
2022/06/04 04:34:38;;;;;;;15.97;13.10;;;;;;;14.41;66.74;101786.22;5039131;28;20224;-65
2022/06/04 04:37:04;;;;;;;16.00;13.20;;;;;;;15.21;64.03;101772.03;5039480;28;20166;-64
2022/06/04 04:39:29;;;;;;;15.70;12.57;;;;;;;14.56;65.05;101768.84;5039158;28;20189;-65
2022/06/04 04:41:54;;;;;;;15.13;13.20;;;;;;;14.64;65.19;101764.59;5039081;28;20174;-64
2022/06/04 04:44:20;;;;;;;14.37;12.97;;;;;;;14.66;65.18;101770.72;5039223;28;20229;-64
2022/06/04 04:46:46;;;;;;;16.10;13.20;;;;;;;14.42;65.41;101761.75;5038962;28;20205;-64
2022/06/04 04:49:11;;;;;;;16.20;13.80;;;;;;;14.68;65.14;101776.00;5038151;28;20182;-64
2022/06/04 04:51:37;;;;;;;19.00;13.90;;;;;;;16.22;61.76;101773.44;5039234;28;20494;-65
2022/06/04 04:54:02;;;;;;;13.33;12.00;;;;;;;16.95;58.16;101763.91;5038739;28;20182;-65
2022/06/04 04:56:28;;;;;;;13.90;11.37;;;;;;;16.16;59.35;101771.69;5038897;28;20179;-64
2022/06/04 04:58:53;;;;;;;12.90;11.53;;;;;;;15.54;62.16;101776.63;5039155;28;20182;-65
2022/06/04 05:01:25;;;;;;;12.40;11.30;;;;;;;16.01;60.46;101767.25;5037789;28;20170;-65
2022/06/04 05:03:51;;;;;;;14.17;12.67;;;;;;;16.74;59.21;101763.00;5038541;28;20177;-65
2022/06/04 05:06:17;;;;;;;13.47;12.07;;;;;;;16.40;58.89;101773.50;5039081;28;20926;-65
2022/06/04 05:08:43;;;;;;;14.13;12.63;;;;;;;16.38;59.90;101775.22;5038584;28;20409;-64
2022/06/04 05:11:29;;;;;;;13.43;12.13;;;;;;;16.30;59.66;101783.13;5037579;28;20450;-64
2022/06/04 05:13:56;;;;;;;13.37;12.00;;;;;;;16.80;58.88;101775.28;5038466;28;20388;-66
2022/06/04 05:16:24;;;;;;;13.30;12.00;;;;;;;17.48;56.76;101767.34;5037724;28;20453;-65
2022/06/04 05:18:50;;;;;;;13.10;11.80;;;;;;;17.85;55.83;101754.91;5038883;28;20467;-65
2022/06/04 05:21:26;;;;;;;13.57;12.17;;;;;;;18.15;55.25;101760.94;5038462;28;20465;-65
2022/06/04 05:23:54;;;;;;;13.73;10.63;;;;;;;17.76;55.48;101765.50;5038281;28;20177;-66
2022/06/04 05:26:20;;;;;;;12.50;11.40;;;;;;;18.40;54.21;101763.47;5054215;28;20412;-65
2022/06/04 05:28:46;;;;;;;12.00;10.80;;;;;;;19.17;51.88;101760.22;5038430;28;20413;-65
2022/06/04 05:31:11;;;;;;;11.87;10.67;;;;;;;19.11;52.01;101768.19;5038375;28;20444;-65
2022/06/04 05:33:37;;;;;;;11.93;10.67;;;;;;;20.08;49.61;101760.06;5036800;28;20186;-65
2022/06/04 05:36:03;;;;;;;11.43;10.37;;;;;;;21.16;47.32;101748.66;5037449;28;20174;-66
2022/06/04 05:38:34;;;;;;;11.20;9.97;;;;;;;21.02;47.55;101748.03;5038200;28;20173;-65
2022/06/04 05:41:10;;;;;;;11.80;10.70;;;;;;;21.03;46.87;101753.28;5038189;28;20417;-65
2022/06/04 05:43:36;;;;;;;10.57;9.60;;;;;;;19.97;48.65;101760.19;5037983;28;20424;-65
2022/06/04 05:46:04;;;;;;;10.67;9.60;;;;;;;20.23;48.85;101759.84;5038062;28;20408;-65
2022/06/04 05:48:29;;;;;;;11.97;10.50;;;;;;;22.02;44.69;101763.78;5032048;28;20513;-65
2022/06/04 05:50:55;;;;;;;10.23;9.40;;;;;;;23.33;42.11;101759.75;5032839;28;20537;-64
2022/06/04 05:53:22;;;;;;;11.80;9.87;;;;;;;22.11;43.39;101766.22;5037949;28;20170;-65
2022/06/04 05:55:48;;;;;;;12.83;9.90;;;;;;;23.44;41.65;101765.63;5038164;28;20463;-65
2022/06/04 05:58:13;;;;;;;10.63;9.73;;;;;;;24.19;39.79;101759.03;5038362;28;20437;-65
2022/06/04 06:00:38;;;;;;;10.83;9.83;;;;;;;24.79;38.34;101751.78;5023266;28;20467;-65
2022/06/04 06:03:04;;;;;;;9.30;8.57;;;;;;;22.99;41.15;101764.16;5018044;28;20193;-65
2022/06/04 06:05:31;;;;;;;9.80;8.90;;;;;;;23.64;41.42;101772.19;5018688;28;20528;-66
2022/06/04 06:07:57;;;;;;;10.10;8.20;;;;;;;22.50;42.59;101768.91;5018150;28;20175;-66
2022/06/04 06:10:22;;;;;;;9.50;8.60;;;;;;;21.65;44.15;101770.75;5019046;28;20469;-66
2022/06/04 06:12:48;;;;;;;9.70;8.77;;;;;;;21.43;45.08;101770.22;5019333;28;20171;-65
2022/06/04 06:15:13;;;;;;;9.40;8.30;;;;;;;20.91;46.33;101772.06;5037768;28;20198;-65
2022/06/04 06:17:40;;;;;;;11.50;8.37;;;;;;;19.36;49.13;101786.44;5037670;28;20696;-65
2022/06/04 06:20:06;;;;;;;9.27;8.40;;;;;;;19.37;49.79;101790.84;5023198;28;20261;-65
2022/06/04 06:22:32;;;;;;;9.43;8.53;;;;;;;19.01;49.87;101790.28;5019579;28;20429;-65
2022/06/04 06:24:58;;;;;;;9.50;8.60;;;;;;;18.40;53.20;101788.97;5024973;28;20435;-64
2022/06/04 06:27:24;;;;;;;9.30;8.40;;;;;;;21.93;44.22;101780.75;5031787;28;20168;-65
2022/06/04 06:29:49;;;;;;;9.23;8.43;;;;;;;19.78;48.19;101796.56;5019711;28;20213;-66
2022/06/04 06:32:15;;;;;;;9.07;8.30;;;;;;;19.28;50.12;101799.78;5024624;28;20520;-65
2022/06/04 06:34:40;;;;;;;10.03;8.40;;;;;;;22.47;43.07;101790.22;5038227;28;20175;-65
2022/06/04 06:37:05;;;;;;;10.87;8.17;;;;;;;23.74;40.69;101783.44;5028941;28;20218;-66
2022/06/04 06:39:31;;;;;;;8.50;7.70;;;;;;;23.75;39.92;101786.06;5025056;28;20464;-66
2022/06/04 06:41:57;;;;;;;8.80;7.93;;;;;;;25.19;37.27;101779.75;5030832;28;20201;-66
2022/06/04 06:44:23;;;;;;;10.20;7.93;;;;;;;25.38;36.49;101780.00;5036055;28;20194;-66
2022/06/04 06:46:49;;;;;;;9.13;8.10;;;;;;;21.39;43.63;101800.38;5028780;28;20444;-65
2022/06/04 06:49:20;;;;;;;11.03;8.80;;;;;;;25.63;36.43;101788.94;5030651;28;20170;-66
2022/06/04 06:51:49;;;;;;;9.50;7.83;;;;;;;24.50;37.92;101792.72;5023648;28;20500;-66
2022/06/04 06:54:16;;;;;;;7.33;6.67;;;;;;;25.46;36.33;101789.53;5021198;28;20417;-69
2022/06/04 06:56:42;;;;;;;8.77;7.97;;;;;;;26.75;34.72;101780.13;5021211;28;20424;-67
2022/06/04 06:59:08;;;;;;;8.60;7.77;;;;;;;25.61;36.24;101785.44;5021320;28;20421;-76
2022/06/04 07:01:34;;;;;;;8.97;8.07;;;;;;;26.58;34.26;101788.84;5039969;28;20736;-68
2022/06/04 07:04:01;;;;;;;9.07;8.37;;;;;;;27.94;32.05;101786.50;5039132;28;20265;-71
2022/06/04 07:06:39;;;;;;;9.80;7.80;;;;;;;25.30;36.35;101807.84;5034171;28;20437;-71
2022/06/04 07:09:26;;;;;;;9.27;8.37;;;;;;;26.80;34.08;101808.44;5040656;28;20417;-72
2022/06/04 07:11:52;;;;;;;8.47;7.60;;;;;;;25.52;36.64;101813.34;5040990;28;20801;-71
2022/06/04 07:14:18;;;;;;;8.73;7.93;;;;;;;24.77;37.32;101817.63;5056226;28;20435;-72
2022/06/04 07:16:44;;;;;;;8.87;8.07;;;;;;;24.79;37.68;101821.13;5052235;28;20237;-73
2022/06/04 07:19:12;;;;;;;8.70;8.00;;;;;;;25.22;36.79;101819.69;5049238;28;20432;-71
2022/06/04 07:21:37;;;;;;;9.67;7.90;;;;;;;24.20;38.68;101830.06;5042881;28;20468;-72
2022/06/04 07:24:02;;;;;;;8.00;7.20;;;;;;;25.80;36.05;101818.50;5051183;28;20454;-72
2022/06/04 07:26:28;;;;;;;7.57;6.87;;;;;;;27.22;33.84;101815.59;5056703;28;20551;-72
2022/06/04 07:28:53;;;;;;;8.33;7.63;;;;;;;27.12;33.08;101800.00;5041286;28;20219;-68
2022/06/04 07:31:19;;;;;;;8.43;7.63;;;;;;;25.76;35.68;101816.03;5039617;28;20213;-68
2022/06/04 07:33:46;;;;;;;10.17;8.20;;;;;;;23.90;39.67;101826.53;5051480;28;20231;-67
2022/06/04 07:36:16;;;;;;;8.23;7.33;;;;;;;25.96;35.70;101824.16;5044220;28;20174;-70
2022/06/04 07:38:42;;;;;;;8.07;7.20;;;;;;;27.18;33.78;101813.97;5041686;28;20487;-68
2022/06/04 07:41:07;;;;;;;7.87;7.07;;;;;;;26.91;34.51;101823.16;5039641;28;20409;-68
2022/06/04 07:43:33;;;;;;;8.07;7.27;;;;;;;25.39;35.86;101823.56;5033641;28;20687;-69
2022/06/04 07:45:58;;;;;;;8.37;7.60;;;;;;;26.80;34.21;101821.81;5020059;28;20175;-69
2022/06/04 07:48:24;;;;;;;8.73;7.67;;;;;;;27.28;33.62;101822.47;5026457;28;20224;-68
2022/06/04 07:50:49;;;;;;;8.53;7.73;;;;;;;27.16;33.31;101826.53;5040204;28;20205;-70
2022/06/04 07:53:14;;;;;;;9.37;8.37;;;;;;;27.55;32.84;101824.91;5041258;28;20485;-70
2022/06/04 07:55:43;;;;;;;14.17;8.30;;;;;;;27.98;31.38;101830.09;5047240;28;20203;-69
2022/06/04 07:58:09;;;;;;;8.77;7.30;;;;;;;26.25;34.18;101840.03;5030375;28;20257;-73
2022/06/04 08:00:38;;;;;;;8.10;7.30;;;;;;;26.81;34.00;101839.59;5054638;28;20507;-72
2022/06/04 08:03:04;;;;;;;8.70;7.50;;;;;;;26.83;33.84;101845.78;5042975;28;20412;-77
2022/06/04 08:05:30;;;;;;;8.53;6.77;;;;;;;26.40;34.11;101842.13;5045766;28;20937;-73
2022/06/04 08:07:55;;;;;;;8.80;7.30;;;;;;;26.90;33.32;101838.38;5038093;28;20519;-72
2022/06/04 08:10:21;;;;;;;7.83;7.13;;;;;;;26.59;32.77;101831.56;5038628;28;20230;-69
2022/06/04 08:12:47;;;;;;;8.53;7.63;;;;;;;25.76;34.54;101840.94;5038707;28;20584;-72
2022/06/04 08:15:14;;;;;;;7.90;7.10;;;;;;;28.26;31.30;101834.19;5032303;28;20407;-71
2022/06/04 08:17:40;;;;;;;6.93;6.33;;;;;;;25.20;35.23;101852.69;5023991;28;20531;-71
2022/06/04 08:20:06;;;;;;;7.80;6.90;;;;;;;25.74;34.81;101840.13;5031214;28;20441;-71
2022/06/04 08:22:31;;;;;;;7.03;6.33;;;;;;;27.52;31.51;101833.94;5043095;28;20547;-71
2022/06/04 08:24:57;;;;;;;6.87;6.17;;;;;;;24.78;35.27;101843.38;5042459;28;20567;-72
2022/06/04 08:27:23;;;;;;;8.53;6.90;;;;;;;27.63;30.98;101838.81;5041740;28;20170;-72
2022/06/04 08:29:49;;;;;;;7.63;6.90;;;;;;;27.15;32.09;101840.84;5039018;28;20167;-72
2022/06/04 08:32:14;;;;;;;6.90;6.03;;;;;;;27.08;31.34;101847.41;5038875;28;20441;-73
2022/06/04 08:34:39;;;;;;;6.93;5.90;;;;;;;24.72;34.99;101854.22;5038521;28;20567;-73
2022/06/04 08:37:06;;;;;;;6.90;6.30;;;;;;;27.53;30.67;101834.81;5039162;28;20189;-73
2022/06/04 08:39:32;;;;;;;6.67;6.07;;;;;;;28.62;29.63;101833.34;5039215;28;20166;-72
2022/06/04 08:42:06;;;;;;;9.23;6.73;;;;;;;23.67;36.54;101854.63;5038993;28;20427;-72
2022/06/04 08:44:38;;;;;;;6.83;6.17;;;;;;;26.31;32.47;101845.16;5038237;28;20197;-72
2022/06/04 08:47:05;;;;;;;6.80;6.10;;;;;;;28.31;29.04;101837.53;5038368;28;20504;-73
2022/06/04 08:49:39;;;;;;;9.13;6.33;;;;;;;26.77;31.50;101839.81;5039321;28;20695;-72
2022/06/04 08:52:32;;;;;;;7.33;6.63;;;;;;;27.56;30.80;101846.25;5038011;28;20456;-73
2022/06/04 08:58:00;;;;;;;7.90;5.97;;;;;;;27.83;29.47;101848.63;5037956;28;20493;-67
2022/06/04 09:00:49;;;;;;;8.03;6.20;;;;;;;28.03;29.13;101841.50;5038780;28;20834;-74
2022/06/04 09:03:33;;;;;;;7.27;5.83;;;;;;;27.47;30.63;101852.03;5038618;28;20818;-74
2022/06/04 09:06:08;;;;;;;6.53;5.83;;;;;;;28.09;29.70;101851.97;5038708;28;20389;-73
2022/06/04 09:08:45;;;;;;;6.73;6.03;;;;;;;27.66;30.89;101853.91;5037913;28;20407;-73
2022/06/04 09:11:28;;;;;;;6.77;5.60;;;;;;;24.95;32.83;101855.28;5037126;28;20475;-71
2022/06/04 09:14:18;;;;;;;7.83;7.03;;;;;;;28.13;29.14;101837.47;5031258;28;20449;-72
2022/06/04 09:16:50;;;;;;;8.53;5.37;;;;;;;27.43;29.07;101839.69;5034739;28;20473;-70
2022/06/04 09:19:25;;;;;;;6.77;5.40;;;;;;;26.93;30.29;101848.03;5025817;28;20424;-71
2022/06/04 09:21:50;;;;;;;5.67;5.00;;;;;;;27.66;29.23;101837.81;5031620;28;20425;-70
2022/06/04 09:24:16;;;;;;;6.30;5.70;;;;;;;27.54;29.88;101845.44;5018501;28;20664;-69
2022/06/04 09:26:51;;;;;;;6.47;5.53;;;;;;;28.95;28.59;101840.69;5018489;28;20178;-69
2022/06/04 09:29:55;;;;;;;7.50;5.20;;;;;;;25.25;33.86;101836.50;5030388;28;20332;-68
2022/06/04 09:33:02;;;;;;;5.90;5.30;;;;;;;28.40;28.45;101839.75;5017834;28;20449;-68
2022/06/04 09:35:30;;;;;;;8.20;5.70;;;;;;;26.88;28.87;101841.06;5025095;28;20428;-69
2022/06/04 09:37:56;;;;;;;11.27;5.90;;;;;;;28.79;28.43;101829.88;5037494;28;20471;-70
2022/06/04 09:40:26;;;;;;;6.77;5.43;;;;;;;25.08;32.56;101850.44;5036298;28;20409;-68
2022/06/04 09:42:52;;;;;;;5.70;5.10;;;;;;;27.79;28.40;101835.44;5036688;28;20182;-68
2022/06/04 09:45:26;;;;;;;7.23;6.00;;;;;;;26.58;30.54;101839.66;5034196;28;20519;-68
2022/06/04 09:47:55;;;;;;;6.90;5.30;;;;;;;27.30;30.90;101847.34;5037729;28;20456;-68
2022/06/04 09:50:26;;;;;;;5.90;5.40;;;;;;;28.15;29.32;101843.63;5031444;28;20462;-68
2022/06/04 09:53:19;;;;;;;7.07;6.10;;;;;;;28.22;29.44;101847.72;5019420;28;20757;-68
2022/06/04 09:56:11;;;;;;;6.57;5.87;;;;;;;28.15;28.69;101848.97;5035551;28;20441;-68
2022/06/04 09:58:39;;;;;;;7.77;6.03;;;;;;;28.57;28.47;101853.22;5045695;28;20435;-68
2022/06/04 10:01:07;;;;;;;7.67;5.70;;;;;;;27.65;29.12;101857.50;5044096;28;20436;-70
2022/06/04 10:03:38;;;;;;;6.40;5.07;;;;;;;27.91;28.90;101859.00;5036074;28;20464;-70
2022/06/04 10:06:22;;;;;;;5.47;4.97;;;;;;;28.31;28.64;101848.28;5036900;28;20524;-69
2022/06/04 10:11:52;;;;;;;6.40;5.40;;;;;;;28.25;29.01;101851.22;5032649;28;20476;-71
2022/06/04 10:14:33;;;;;;;6.87;6.10;;;;;;;28.30;29.00;101855.41;5036887;28;20739;-71
2022/06/04 10:16:59;;;;;;;11.63;10.47;;;;;;;28.18;28.29;101861.38;5036843;28;20460;-71
2022/06/04 10:19:26;;;;;;;6.53;5.93;;;;;;;25.13;32.89;101869.84;5037382;28;20421;-71
2022/06/04 10:22:12;;;;;;;10.47;9.47;;;;;;;26.61;31.13;101866.28;5036860;28;20695;-70
2022/06/04 10:24:55;;;;;;;6.93;6.23;;;;;;;25.96;31.81;101850.03;5040962;28;20470;-71
2022/06/04 10:27:36;;;;;;;9.30;7.53;;;;;;;25.70;31.86;101855.38;5040697;28;20416;-71
2022/06/04 10:30:16;;;;;;;6.70;6.00;;;;;;;25.49;30.42;101857.03;5041065;28;20412;-71
2022/06/04 10:32:44;;;;;;;7.27;5.97;;;;;;;26.61;30.01;101852.91;5041161;28;20495;-70
2022/06/04 10:35:13;;;;;;;7.13;5.93;;;;;;;28.28;28.69;101840.34;5041290;28;20420;-71
2022/06/04 10:37:43;;;;;;;5.90;5.40;;;;;;;26.06;30.77;101848.78;5044117;28;20405;-71
2022/06/04 10:40:21;;;;;;;6.33;5.73;;;;;;;24.99;32.26;101849.81;5045998;28;20441;-71
2022/06/04 10:42:58;;;;;;;8.57;6.30;;;;;;;27.07;30.88;101834.97;5041341;28;20405;-71
2022/06/04 10:45:29;;;;;;;6.30;5.70;;;;;;;26.57;31.47;101836.09;5041087;28;20427;-72
2022/06/04 10:48:10;;;;;;;6.00;5.37;;;;;;;27.35;29.12;101836.47;5040355;28;20435;-71
2022/06/04 10:53:56;;;;;;;7.37;5.50;;;;;;;28.03;28.29;101830.78;5040332;28;20845;-70
2022/06/04 10:56:27;;;;;;;6.50;4.87;;;;;;;26.89;30.18;101837.47;5040921;28;20405;-75
2022/06/04 10:59:05;;;;;;;6.03;5.43;;;;;;;28.14;29.18;101832.97;5040354;28;20439;-72
2022/06/04 11:01:46;;;;;;;7.80;7.00;;;;;;;28.43;28.84;101839.63;5041013;28;20466;-73
2022/06/04 11:04:24;;;;;;;7.47;6.67;;;;;;;27.53;29.36;101850.88;5040156;28;20409;-71
2022/06/04 11:06:54;;;;;;;6.50;5.23;;;;;;;27.59;28.77;101847.94;5041175;28;20470;-72
2022/06/04 11:09:40;;;;;;;6.23;5.67;;;;;;;26.59;29.34;101854.75;5040278;28;20496;-71
2022/06/04 11:12:21;;;;;;;5.40;4.80;;;;;;;24.10;33.34;101850.78;5039541;28;20468;-74
2022/06/04 11:14:52;;;;;;;6.23;5.03;;;;;;;23.91;33.99;101855.78;5040879;28;20710;-72
2022/06/04 11:17:24;;;;;;;5.50;5.00;;;;;;;26.67;30.94;101844.59;5040441;28;20465;-70
2022/06/04 11:20:26;;;;;;;6.17;5.60;;;;;;;26.66;30.33;101841.06;5040036;28;20409;-70
2022/06/04 11:23:04;;;;;;;5.90;5.17;;;;;;;26.28;30.63;101839.94;5002751;28;20558;-75
2022/06/04 11:25:34;;;;;;;5.80;5.20;;;;;;;25.25;31.76;101841.81;5038050;28;20421;-74
2022/06/04 11:28:10;;;;;;;5.90;5.30;;;;;;;24.87;32.11;101842.22;5039718;28;20436;-69
2022/06/04 11:30:48;;;;;;;7.87;5.40;;;;;;;25.91;30.76;101841.28;5039662;28;20460;-69
2022/06/04 11:33:27;;;;;;;5.80;5.20;;;;;;;24.85;32.01;101844.06;5040331;28;20429;-67
2022/06/04 11:36:09;;;;;;;5.73;5.03;;;;;;;23.96;33.16;101860.94;5038536;28;20413;-74
2022/06/04 11:38:42;;;;;;;7.13;4.90;;;;;;;24.70;32.21;101846.28;5040310;28;20516;-71
2022/06/04 11:41:22;;;;;;;14.33;5.00;;;;;;;22.32;34.33;101860.50;5040373;28;20869;-69
2022/06/04 11:44:13;;;;;;;16.13;5.57;;;;;;;24.64;32.25;101834.94;5040056;28;20742;-71
2022/06/04 11:46:56;;;;;;;9.50;5.30;;;;;;;25.11;30.00;101832.50;5038846;28;20425;-67
2022/06/04 11:49:40;;;;;;;7.97;5.00;;;;;;;23.71;32.60;101840.31;5039307;28;20825;-68
2022/06/04 11:52:23;;;;;;;5.00;4.50;;;;;;;25.35;31.32;101825.47;5020077;28;20540;-69